sensor_id;sensor_type;location;lat;lon;timestamp;temperature;humidity
12604;DHT22;6367;52.508;13.284;2022-10-26T00:02:17;14.20;99.90
12604;DHT22;6367;52.508;13.284;2022-10-26T00:04:43;14.80;99.90
12604;DHT22;6367;52.508;13.284;2022-10-26T00:07:09;14.20;99.90
12604;DHT22;6367;52.508;13.284;2022-10-26T00:09:35;14.10;99.90
12604;DHT22;6367;52.508;13.284;2022-10-26T00:12:01;14.10;99.90
12604;DHT22;6367;52.508;13.284;2022-10-26T00:14:27;14.20;99.90
12604;DHT22;6367;52.508;13.284;2022-10-26T00:16:52;14.30;99.90
12604;DHT22;6367;52.508;13.284;2022-10-26T00:19:18;14.30;99.90
12604;DHT22;6367;52.508;13.284;2022-10-26T00:21:43;14.30;99.90
12604;DHT22;6367;52.508;13.284;2022-10-26T00:24:10;14.40;99.90
12604;DHT22;6367;52.508;13.284;2022-10-26T00:26:36;14.20;99.90
12604;DHT22;6367;52.508;13.284;2022-10-26T00:29:02;14.10;99.90
12604;DHT22;6367;52.508;13.284;2022-10-26T00:31:28;14.10;99.90
12604;DHT22;6367;52.508;13.284;2022-10-26T00:33:54;14.20;99.90
12604;DHT22;6367;52.508;13.284;2022-10-26T00:36:22;14.10;99.90
12604;DHT22;6367;52.508;13.284;2022-10-26T00:38:53;14.10;99.90
12604;DHT22;6367;52.508;13.284;2022-10-26T00:41:22;14.10;99.90
12604;DHT22;6367;52.508;13.284;2022-10-26T00:43:48;14.00;99.90
12604;DHT22;6367;52.508;13.284;2022-10-26T00:46:19;13.90;99.90
12604;DHT22;6367;52.508;13.284;2022-10-26T00:48:49;13.90;99.90
12604;DHT22;6367;52.508;13.284;2022-10-26T00:51:35;13.90;99.90
12604;DHT22;6367;52.508;13.284;2022-10-26T00:54:04;13.90;99.90
12604;DHT22;6367;52.508;13.284;2022-10-26T00:56:31;14.00;99.90
12604;DHT22;6367;52.508;13.284;2022-10-26T00:59:00;13.90;99.90
12604;DHT22;6367;52.508;13.284;2022-10-26T01:01:27;13.90;99.90
12604;DHT22;6367;52.508;13.284;2022-10-26T01:03:54;13.90;99.90
12604;DHT22;6367;52.508;13.284;2022-10-26T01:06:20;14.40;99.90
12604;DHT22;6367;52.508;13.284;2022-10-26T01:08:47;13.90;99.90
12604;DHT22;6367;52.508;13.284;2022-10-26T01:11:13;13.90;99.90
12604;DHT22;6367;52.508;13.284;2022-10-26T01:13:39;13.90;99.90
12604;DHT22;6367;52.508;13.284;2022-10-26T01:16:25;13.80;99.90
12604;DHT22;6367;52.508;13.284;2022-10-26T01:22:00;13.80;99.90
12604;DHT22;6367;52.508;13.284;2022-10-26T01:27:27;13.80;99.90
12604;DHT22;6367;52.508;13.284;2022-10-26T01:36:31;13.80;99.90
12604;DHT22;6367;52.508;13.284;2022-10-26T01:38:51;13.80;99.90
12604;DHT22;6367;52.508;13.284;2022-10-26T01:41:26;13.70;99.90
12604;DHT22;6367;52.508;13.284;2022-10-26T01:44:05;13.90;99.90
12604;DHT22;6367;52.508;13.284;2022-10-26T01:46:35;13.80;99.90
12604;DHT22;6367;52.508;13.284;2022-10-26T01:49:07;14.50;99.90
12604;DHT22;6367;52.508;13.284;2022-10-26T01:51:34;13.90;99.90
12604;DHT22;6367;52.508;13.284;2022-10-26T01:54:00;13.90;99.90
12604;DHT22;6367;52.508;13.284;2022-10-26T01:56:28;14.00;99.90
12604;DHT22;6367;52.508;13.284;2022-10-26T01:59:20;14.00;99.90
12604;DHT22;6367;52.508;13.284;2022-10-26T02:02:01;13.80;99.90
12604;DHT22;6367;52.508;13.284;2022-10-26T02:15:11;13.80;99.90
12604;DHT22;6367;52.508;13.284;2022-10-26T02:17:53;13.90;99.90
12604;DHT22;6367;52.508;13.284;2022-10-26T02:20:37;13.90;99.90
12604;DHT22;6367;52.508;13.284;2022-10-26T02:23:06;13.90;99.90
12604;DHT22;6367;52.508;13.284;2022-10-26T02:25:35;13.80;99.90
12604;DHT22;6367;52.508;13.284;2022-10-26T02:28:10;13.80;99.90
12604;DHT22;6367;52.508;13.284;2022-10-26T02:30:38;13.80;99.90
12604;DHT22;6367;52.508;13.284;2022-10-26T02:33:05;13.80;99.90
12604;DHT22;6367;52.508;13.284;2022-10-26T02:35:35;13.80;99.90
12604;DHT22;6367;52.508;13.284;2022-10-26T02:38:04;13.80;99.90
12604;DHT22;6367;52.508;13.284;2022-10-26T02:40:33;13.60;99.90
12604;DHT22;6367;52.508;13.284;2022-10-26T02:43:03;13.60;99.90
12604;DHT22;6367;52.508;13.284;2022-10-26T02:45:33;13.60;99.90
12604;DHT22;6367;52.508;13.284;2022-10-26T02:48:00;13.80;99.90
12604;DHT22;6367;52.508;13.284;2022-10-26T02:50:32;13.60;99.90
12604;DHT22;6367;52.508;13.284;2022-10-26T02:53:13;13.50;99.90
12604;DHT22;6367;52.508;13.284;2022-10-26T02:55:45;13.50;99.90
12604;DHT22;6367;52.508;13.284;2022-10-26T02:58:17;13.50;99.90
12604;DHT22;6367;52.508;13.284;2022-10-26T03:00:44;13.40;99.90
12604;DHT22;6367;52.508;13.284;2022-10-26T03:03:11;13.40;99.90
12604;DHT22;6367;52.508;13.284;2022-10-26T03:05:40;13.10;99.90
12604;DHT22;6367;52.508;13.284;2022-10-26T03:08:06;13.20;99.90
12604;DHT22;6367;52.508;13.284;2022-10-26T03:10:33;13.20;99.90
12604;DHT22;6367;52.508;13.284;2022-10-26T03:12:59;13.10;99.90
12604;DHT22;6367;52.508;13.284;2022-10-26T03:15:25;13.10;99.90
12604;DHT22;6367;52.508;13.284;2022-10-26T03:17:50;13.20;99.90
12604;DHT22;6367;52.508;13.284;2022-10-26T03:20:16;13.20;99.90
12604;DHT22;6367;52.508;13.284;2022-10-26T03:22:41;13.20;99.90
12604;DHT22;6367;52.508;13.284;2022-10-26T03:25:07;13.20;99.90
12604;DHT22;6367;52.508;13.284;2022-10-26T03:27:33;13.20;99.90
12604;DHT22;6367;52.508;13.284;2022-10-26T03:29:59;13.10;99.90
12604;DHT22;6367;52.508;13.284;2022-10-26T03:32:25;13.20;99.90
12604;DHT22;6367;52.508;13.284;2022-10-26T03:34:50;13.80;99.90
12604;DHT22;6367;52.508;13.284;2022-10-26T03:37:16;13.20;99.90
12604;DHT22;6367;52.508;13.284;2022-10-26T03:39:41;13.20;99.90
12604;DHT22;6367;52.508;13.284;2022-10-26T03:42:07;13.10;99.90
12604;DHT22;6367;52.508;13.284;2022-10-26T03:44:32;13.10;99.90
12604;DHT22;6367;52.508;13.284;2022-10-26T03:46:58;13.10;99.90
12604;DHT22;6367;52.508;13.284;2022-10-26T03:49:23;13.00;99.90
12604;DHT22;6367;52.508;13.284;2022-10-26T03:51:49;13.10;99.90
12604;DHT22;6367;52.508;13.284;2022-10-26T03:54:14;13.00;99.90
12604;DHT22;6367;52.508;13.284;2022-10-26T03:56:40;12.90;99.90
12604;DHT22;6367;52.508;13.284;2022-10-26T03:59:06;12.90;99.90
12604;DHT22;6367;52.508;13.284;2022-10-26T04:01:31;13.00;99.90
12604;DHT22;6367;52.508;13.284;2022-10-26T04:03:57;13.00;99.90
12604;DHT22;6367;52.508;13.284;2022-10-26T04:06:22;13.00;99.90
12604;DHT22;6367;52.508;13.284;2022-10-26T04:08:48;13.10;99.90
12604;DHT22;6367;52.508;13.284;2022-10-26T04:11:13;13.20;99.90
12604;DHT22;6367;52.508;13.284;2022-10-26T04:13:39;13.10;99.90
12604;DHT22;6367;52.508;13.284;2022-10-26T04:16:04;13.10;99.90
12604;DHT22;6367;52.508;13.284;2022-10-26T04:18:30;13.00;99.90
12604;DHT22;6367;52.508;13.284;2022-10-26T04:20:59;13.00;99.90
12604;DHT22;6367;52.508;13.284;2022-10-26T04:23:25;13.00;99.90
12604;DHT22;6367;52.508;13.284;2022-10-26T04:25:51;13.00;99.90
12604;DHT22;6367;52.508;13.284;2022-10-26T04:28:16;13.00;99.90
12604;DHT22;6367;52.508;13.284;2022-10-26T04:30:42;13.00;99.90
12604;DHT22;6367;52.508;13.284;2022-10-26T04:33:07;13.00;99.90
12604;DHT22;6367;52.508;13.284;2022-10-26T04:35:33;13.00;99.90
12604;DHT22;6367;52.508;13.284;2022-10-26T04:38:00;13.40;99.90
12604;DHT22;6367;52.508;13.284;2022-10-26T04:40:27;12.90;99.90
12604;DHT22;6367;52.508;13.284;2022-10-26T04:42:53;13.00;99.90
12604;DHT22;6367;52.508;13.284;2022-10-26T04:45:19;13.00;99.90
12604;DHT22;6367;52.508;13.284;2022-10-26T04:47:44;12.90;99.90
12604;DHT22;6367;52.508;13.284;2022-10-26T04:50:11;13.30;99.90
12604;DHT22;6367;52.508;13.284;2022-10-26T04:52:38;13.00;99.90
12604;DHT22;6367;52.508;13.284;2022-10-26T04:55:04;12.80;99.90
12604;DHT22;6367;52.508;13.284;2022-10-26T04:57:31;12.90;99.90
12604;DHT22;6367;52.508;13.284;2022-10-26T04:59:58;12.90;99.90
12604;DHT22;6367;52.508;13.284;2022-10-26T05:02:23;12.80;99.90
12604;DHT22;6367;52.508;13.284;2022-10-26T05:04:49;12.80;99.90
12604;DHT22;6367;52.508;13.284;2022-10-26T05:07:14;12.70;99.90
12604;DHT22;6367;52.508;13.284;2022-10-26T05:09:40;12.70;99.90
12604;DHT22;6367;52.508;13.284;2022-10-26T05:12:05;12.60;99.90
12604;DHT22;6367;52.508;13.284;2022-10-26T05:14:31;12.70;99.90
12604;DHT22;6367;52.508;13.284;2022-10-26T05:16:57;12.80;99.90
12604;DHT22;6367;52.508;13.284;2022-10-26T05:19:22;12.70;99.90
12604;DHT22;6367;52.508;13.284;2022-10-26T05:21:48;13.20;99.90
12604;DHT22;6367;52.508;13.284;2022-10-26T05:24:13;12.70;99.90
12604;DHT22;6367;52.508;13.284;2022-10-26T05:26:39;12.80;99.90
12604;DHT22;6367;52.508;13.284;2022-10-26T05:29:04;12.70;99.90
12604;DHT22;6367;52.508;13.284;2022-10-26T05:31:30;12.60;99.90
12604;DHT22;6367;52.508;13.284;2022-10-26T05:33:55;12.60;99.90
12604;DHT22;6367;52.508;13.284;2022-10-26T05:36:21;12.70;99.90
12604;DHT22;6367;52.508;13.284;2022-10-26T05:38:47;12.70;99.90
12604;DHT22;6367;52.508;13.284;2022-10-26T05:41:12;12.60;99.90
12604;DHT22;6367;52.508;13.284;2022-10-26T05:43:38;12.70;99.90
12604;DHT22;6367;52.508;13.284;2022-10-26T05:46:03;12.70;99.90
12604;DHT22;6367;52.508;13.284;2022-10-26T05:48:29;12.70;99.90
12604;DHT22;6367;52.508;13.284;2022-10-26T05:50:58;12.60;99.90
12604;DHT22;6367;52.508;13.284;2022-10-26T05:53:24;12.60;99.90
12604;DHT22;6367;52.508;13.284;2022-10-26T05:55:50;12.60;99.90
12604;DHT22;6367;52.508;13.284;2022-10-26T05:58:16;11.90;99.90
12604;DHT22;6367;52.508;13.284;2022-10-26T06:03:51;12.50;99.90
12604;DHT22;6367;52.508;13.284;2022-10-26T06:06:21;12.70;99.90
12604;DHT22;6367;52.508;13.284;2022-10-26T06:08:47;13.20;99.90
12604;DHT22;6367;52.508;13.284;2022-10-26T06:11:13;12.60;99.90
12604;DHT22;6367;52.508;13.284;2022-10-26T06:13:38;12.60;99.90
12604;DHT22;6367;52.508;13.284;2022-10-26T06:24:08;12.70;99.90
12604;DHT22;6367;52.508;13.284;2022-10-26T06:26:40;12.80;99.90
12604;DHT22;6367;52.508;13.284;2022-10-26T06:29:17;12.70;99.90
12604;DHT22;6367;52.508;13.284;2022-10-26T06:31:44;12.80;99.90
12604;DHT22;6367;52.508;13.284;2022-10-26T06:34:11;13.20;99.90
12604;DHT22;6367;52.508;13.284;2022-10-26T06:36:40;13.00;99.90
12604;DHT22;6367;52.508;13.284;2022-10-26T06:39:09;13.00;99.90
12604;DHT22;6367;52.508;13.284;2022-10-26T06:41:36;13.20;99.90
12604;DHT22;6367;52.508;13.284;2022-10-26T06:44:03;13.10;99.90
12604;DHT22;6367;52.508;13.284;2022-10-26T06:46:40;13.10;99.90
12604;DHT22;6367;52.508;13.284;2022-10-26T06:49:36;13.20;99.90
12604;DHT22;6367;52.508;13.284;2022-10-26T06:52:32;13.20;99.90
12604;DHT22;6367;52.508;13.284;2022-10-26T06:54:56;13.20;99.90
12604;DHT22;6367;52.508;13.284;2022-10-26T06:57:23;13.30;99.90
12604;DHT22;6367;52.508;13.284;2022-10-26T06:59:59;13.20;99.90
12604;DHT22;6367;52.508;13.284;2022-10-26T07:02:26;13.20;99.90
12604;DHT22;6367;52.508;13.284;2022-10-26T07:04:52;13.30;99.90
12604;DHT22;6367;52.508;13.284;2022-10-26T07:07:23;13.30;99.90
12604;DHT22;6367;52.508;13.284;2022-10-26T07:09:49;13.40;99.90
12604;DHT22;6367;52.508;13.284;2022-10-26T07:12:15;13.50;99.90
12604;DHT22;6367;52.508;13.284;2022-10-26T07:14:40;13.50;99.90
12604;DHT22;6367;52.508;13.284;2022-10-26T07:17:07;13.60;99.90
12604;DHT22;6367;52.508;13.284;2022-10-26T07:19:33;13.50;99.90
12604;DHT22;6367;52.508;13.284;2022-10-26T07:21:59;13.50;99.90
12604;DHT22;6367;52.508;13.284;2022-10-26T07:24:29;13.60;99.90
12604;DHT22;6367;52.508;13.284;2022-10-26T07:26:55;13.70;99.90
12604;DHT22;6367;52.508;13.284;2022-10-26T07:29:22;13.80;99.90
12604;DHT22;6367;52.508;13.284;2022-10-26T07:31:49;13.80;99.90
12604;DHT22;6367;52.508;13.284;2022-10-26T07:34:14;13.90;99.90
12604;DHT22;6367;52.508;13.284;2022-10-26T07:36:40;14.00;99.90
12604;DHT22;6367;52.508;13.284;2022-10-26T07:39:06;14.00;99.90
12604;DHT22;6367;52.508;13.284;2022-10-26T07:41:32;14.10;99.90
12604;DHT22;6367;52.508;13.284;2022-10-26T07:43:57;14.20;99.90
12604;DHT22;6367;52.508;13.284;2022-10-26T07:46:23;14.30;99.90
12604;DHT22;6367;52.508;13.284;2022-10-26T07:48:49;14.40;99.90
12604;DHT22;6367;52.508;13.284;2022-10-26T07:51:15;14.90;99.90
12604;DHT22;6367;52.508;13.284;2022-10-26T07:53:41;14.60;99.90
12604;DHT22;6367;52.508;13.284;2022-10-26T07:56:08;14.80;99.90
12604;DHT22;6367;52.508;13.284;2022-10-26T07:58:34;14.90;99.90
12604;DHT22;6367;52.508;13.284;2022-10-26T08:01:12;15.00;99.90
12604;DHT22;6367;52.508;13.284;2022-10-26T08:03:38;15.30;99.90
12604;DHT22;6367;52.508;13.284;2022-10-26T08:06:04;15.20;99.90
12604;DHT22;6367;52.508;13.284;2022-10-26T08:08:31;15.40;99.90
12604;DHT22;6367;52.508;13.284;2022-10-26T08:10:57;15.40;99.90
12604;DHT22;6367;52.508;13.284;2022-10-26T08:13:22;15.50;99.90
12604;DHT22;6367;52.508;13.284;2022-10-26T08:15:48;15.60;99.90
12604;DHT22;6367;52.508;13.284;2022-10-26T08:18:14;16.20;99.90
12604;DHT22;6367;52.508;13.284;2022-10-26T08:20:40;15.90;99.90
12604;DHT22;6367;52.508;13.284;2022-10-26T08:23:06;16.00;99.90
12604;DHT22;6367;52.508;13.284;2022-10-26T08:25:33;16.10;99.90
12604;DHT22;6367;52.508;13.284;2022-10-26T08:28:02;16.30;99.90
12604;DHT22;6367;52.508;13.284;2022-10-26T08:30:32;16.20;99.90
12604;DHT22;6367;52.508;13.284;2022-10-26T08:33:06;16.90;99.90
12604;DHT22;6367;52.508;13.284;2022-10-26T08:35:32;16.40;99.90
12604;DHT22;6367;52.508;13.284;2022-10-26T08:37:58;16.40;99.90
12604;DHT22;6367;52.508;13.284;2022-10-26T08:40:32;16.60;99.90
12604;DHT22;6367;52.508;13.284;2022-10-26T08:46:04;16.60;99.90
12604;DHT22;6367;52.508;13.284;2022-10-26T08:48:37;16.70;99.90
12604;DHT22;6367;52.508;13.284;2022-10-26T08:51:17;16.70;99.90
12604;DHT22;6367;52.508;13.284;2022-10-26T08:53:59;16.80;99.90
12604;DHT22;6367;52.508;13.284;2022-10-26T08:56:28;16.90;99.90
12604;DHT22;6367;52.508;13.284;2022-10-26T08:59:01;16.90;99.90
12604;DHT22;6367;52.508;13.284;2022-10-26T09:01:30;17.10;99.90
12604;DHT22;6367;52.508;13.284;2022-10-26T09:03:57;17.10;99.90
12604;DHT22;6367;52.508;13.284;2022-10-26T09:09:06;17.20;99.90
12604;DHT22;6367;52.508;13.284;2022-10-26T09:15:01;17.10;99.90
12604;DHT22;6367;52.508;13.284;2022-10-26T09:26:01;17.60;99.90
12604;DHT22;6367;52.508;13.284;2022-10-26T09:28:34;17.70;99.90
12604;DHT22;6367;52.508;13.284;2022-10-26T09:31:01;17.60;99.90
12604;DHT22;6367;52.508;13.284;2022-10-26T09:33:28;17.60;99.90
12604;DHT22;6367;52.508;13.284;2022-10-26T09:36:07;17.50;99.90
12604;DHT22;6367;52.508;13.284;2022-10-26T09:38:38;17.50;99.90
12604;DHT22;6367;52.508;13.284;2022-10-26T09:44:04;17.70;99.90
12604;DHT22;6367;52.508;13.284;2022-10-26T09:46:36;17.80;99.90
12604;DHT22;6367;52.508;13.284;2022-10-26T09:49:07;17.80;99.90
12604;DHT22;6367;52.508;13.284;2022-10-26T09:51:36;17.80;99.90
12604;DHT22;6367;52.508;13.284;2022-10-26T09:54:17;17.90;99.90
12604;DHT22;6367;52.508;13.284;2022-10-26T09:56:48;17.90;99.90
12604;DHT22;6367;52.508;13.284;2022-10-26T09:59:15;18.30;99.90
12604;DHT22;6367;52.508;13.284;2022-10-26T10:01:42;18.20;99.90
12604;DHT22;6367;52.508;13.284;2022-10-26T10:06:43;18.30;99.90
12604;DHT22;6367;52.508;13.284;2022-10-26T10:11:40;18.40;99.90
12604;DHT22;6367;52.508;13.284;2022-10-26T10:14:12;18.50;99.90
12604;DHT22;6367;52.508;13.284;2022-10-26T10:16:39;18.50;99.90
12604;DHT22;6367;52.508;13.284;2022-10-26T10:19:05;19.00;99.90
12604;DHT22;6367;52.508;13.284;2022-10-26T10:21:49;18.60;99.90
12604;DHT22;6367;52.508;13.284;2022-10-26T10:24:25;18.60;99.90
12604;DHT22;6367;52.508;13.284;2022-10-26T10:27:02;18.70;99.90
12604;DHT22;6367;52.508;13.284;2022-10-26T10:29:33;18.80;99.90
12604;DHT22;6367;52.508;13.284;2022-10-26T10:32:04;18.90;99.90
12604;DHT22;6367;52.508;13.284;2022-10-26T10:34:31;19.00;99.90
12604;DHT22;6367;52.508;13.284;2022-10-26T10:36:57;19.40;99.90
12604;DHT22;6367;52.508;13.284;2022-10-26T10:39:43;19.00;99.90
12604;DHT22;6367;52.508;13.284;2022-10-26T10:42:36;19.00;99.90
12604;DHT22;6367;52.508;13.284;2022-10-26T10:45:04;19.20;99.90
12604;DHT22;6367;52.508;13.284;2022-10-26T10:47:35;19.30;99.90
12604;DHT22;6367;52.508;13.284;2022-10-26T10:50:14;19.30;99.90
12604;DHT22;6367;52.508;13.284;2022-10-26T10:52:41;19.30;99.90
12604;DHT22;6367;52.508;13.284;2022-10-26T10:55:21;19.40;99.90
12604;DHT22;6367;52.508;13.284;2022-10-26T11:00:37;19.40;99.90
12604;DHT22;6367;52.508;13.284;2022-10-26T11:03:29;19.50;99.90
12604;DHT22;6367;52.508;13.284;2022-10-26T11:11:15;19.60;99.90
12604;DHT22;6367;52.508;13.284;2022-10-26T11:13:55;19.70;99.90
12604;DHT22;6367;52.508;13.284;2022-10-26T11:16:27;19.90;99.90
12604;DHT22;6367;52.508;13.284;2022-10-26T11:21:58;19.90;99.90
12604;DHT22;6367;52.508;13.284;2022-10-26T11:24:32;20.50;99.90
12604;DHT22;6367;52.508;13.284;2022-10-26T11:30:26;20.00;99.90
12604;DHT22;6367;52.508;13.284;2022-10-26T11:32:59;20.00;99.90
12604;DHT22;6367;52.508;13.284;2022-10-26T11:35:28;20.10;99.90
12604;DHT22;6367;52.508;13.284;2022-10-26T11:38:22;20.20;99.90
12604;DHT22;6367;52.508;13.284;2022-10-26T11:40:58;20.20;99.90
12604;DHT22;6367;52.508;13.284;2022-10-26T11:43:42;20.40;99.90
12604;DHT22;6367;52.508;13.284;2022-10-26T11:46:23;20.60;99.90
12604;DHT22;6367;52.508;13.284;2022-10-26T11:54:31;20.70;99.90
12604;DHT22;6367;52.508;13.284;2022-10-26T11:56:59;20.80;99.90
12604;DHT22;6367;52.508;13.284;2022-10-26T11:59:28;20.80;99.90
12604;DHT22;6367;52.508;13.284;2022-10-26T12:02:03;20.80;99.70
12604;DHT22;6367;52.508;13.284;2022-10-26T12:04:31;20.70;99.60
12604;DHT22;6367;52.508;13.284;2022-10-26T12:06:59;20.70;99.70
12604;DHT22;6367;52.508;13.284;2022-10-26T12:09:30;20.70;99.70
12604;DHT22;6367;52.508;13.284;2022-10-26T12:12:13;20.60;99.60
12604;DHT22;6367;52.508;13.284;2022-10-26T12:17:34;20.50;99.70
12604;DHT22;6367;52.508;13.284;2022-10-26T12:23:05;20.40;99.90
12604;DHT22;6367;52.508;13.284;2022-10-26T12:25:32;20.40;99.90
12604;DHT22;6367;52.508;13.284;2022-10-26T12:27:58;20.50;99.90
12604;DHT22;6367;52.508;13.284;2022-10-26T12:33:01;20.40;99.90
12604;DHT22;6367;52.508;13.284;2022-10-26T12:35:36;20.50;99.90
12604;DHT22;6367;52.508;13.284;2022-10-26T12:41:06;20.30;99.90
12604;DHT22;6367;52.508;13.284;2022-10-26T12:43:33;20.30;99.90
12604;DHT22;6367;52.508;13.284;2022-10-26T12:48:48;20.30;99.90
12604;DHT22;6367;52.508;13.284;2022-10-26T12:59:23;20.10;99.90
12604;DHT22;6367;52.508;13.284;2022-10-26T13:08:01;20.30;99.90
12604;DHT22;6367;52.508;13.284;2022-10-26T13:10:27;20.70;99.90
12604;DHT22;6367;52.508;13.284;2022-10-26T13:12:55;20.40;99.90
12604;DHT22;6367;52.508;13.284;2022-10-26T13:15:27;20.40;99.90
12604;DHT22;6367;52.508;13.284;2022-10-26T13:18:00;20.50;99.90
12604;DHT22;6367;52.508;13.284;2022-10-26T13:20:28;20.50;99.90
12604;DHT22;6367;52.508;13.284;2022-10-26T13:22:55;20.90;99.90
12604;DHT22;6367;52.508;13.284;2022-10-26T13:25:28;20.50;99.90
12604;DHT22;6367;52.508;13.284;2022-10-26T13:28:01;20.50;99.90
12604;DHT22;6367;52.508;13.284;2022-10-26T13:32:59;20.50;99.90
12604;DHT22;6367;52.508;13.284;2022-10-26T13:35:26;20.60;99.90
12604;DHT22;6367;52.508;13.284;2022-10-26T13:37:55;20.50;99.90
12604;DHT22;6367;52.508;13.284;2022-10-26T13:40:26;20.50;99.90
12604;DHT22;6367;52.508;13.284;2022-10-26T13:42:57;20.50;99.90
12604;DHT22;6367;52.508;13.284;2022-10-26T13:45:31;20.50;99.90
12604;DHT22;6367;52.508;13.284;2022-10-26T13:48:10;20.50;99.90
12604;DHT22;6367;52.508;13.284;2022-10-26T13:50:50;20.60;99.90
12604;DHT22;6367;52.508;13.284;2022-10-26T13:53:37;20.50;99.90
12604;DHT22;6367;52.508;13.284;2022-10-26T13:59:04;20.70;99.90
12604;DHT22;6367;52.508;13.284;2022-10-26T14:01:31;20.70;99.90
12604;DHT22;6367;52.508;13.284;2022-10-26T14:03:56;20.70;99.90
12604;DHT22;6367;52.508;13.284;2022-10-26T14:06:36;21.00;99.90
12604;DHT22;6367;52.508;13.284;2022-10-26T14:09:13;20.60;99.90
12604;DHT22;6367;52.508;13.284;2022-10-26T14:11:51;20.70;99.90
12604;DHT22;6367;52.508;13.284;2022-10-26T14:14:38;20.60;99.90
12604;DHT22;6367;52.508;13.284;2022-10-26T14:17:04;20.60;99.90
12604;DHT22;6367;52.508;13.284;2022-10-26T14:19:36;20.60;99.90
12604;DHT22;6367;52.508;13.284;2022-10-26T14:22:03;20.50;99.90
12604;DHT22;6367;52.508;13.284;2022-10-26T14:24:34;20.50;99.90
12604;DHT22;6367;52.508;13.284;2022-10-26T14:27:02;20.60;99.90
12604;DHT22;6367;52.508;13.284;2022-10-26T14:29:31;20.60;99.90
12604;DHT22;6367;52.508;13.284;2022-10-26T14:31:57;20.60;99.90
12604;DHT22;6367;52.508;13.284;2022-10-26T14:34:23;20.50;99.90
12604;DHT22;6367;52.508;13.284;2022-10-26T14:36:59;20.60;99.90
12604;DHT22;6367;52.508;13.284;2022-10-26T14:39:44;20.50;99.90
12604;DHT22;6367;52.508;13.284;2022-10-26T14:42:37;20.50;99.90
12604;DHT22;6367;52.508;13.284;2022-10-26T14:45:04;20.50;99.90
12604;DHT22;6367;52.508;13.284;2022-10-26T14:47:32;20.50;99.90
12604;DHT22;6367;52.508;13.284;2022-10-26T14:49:59;20.40;99.90
12604;DHT22;6367;52.508;13.284;2022-10-26T14:52:29;20.40;99.90
12604;DHT22;6367;52.508;13.284;2022-10-26T14:55:00;20.40;99.90
12604;DHT22;6367;52.508;13.284;2022-10-26T14:57:31;20.40;99.90
12604;DHT22;6367;52.508;13.284;2022-10-26T15:00:13;20.80;99.90
12604;DHT22;6367;52.508;13.284;2022-10-26T15:02:40;20.20;99.90
12604;DHT22;6367;52.508;13.284;2022-10-26T15:05:32;20.20;99.90
12604;DHT22;6367;52.508;13.284;2022-10-26T15:07:58;20.20;99.90
12604;DHT22;6367;52.508;13.284;2022-10-26T15:13:22;20.40;99.90
12604;DHT22;6367;52.508;13.284;2022-10-26T15:15:50;20.10;99.90
12604;DHT22;6367;52.508;13.284;2022-10-26T15:18:28;20.10;99.90
12604;DHT22;6367;52.508;13.284;2022-10-26T15:20:55;20.10;99.90
12604;DHT22;6367;52.508;13.284;2022-10-26T15:23:22;20.10;99.90
12604;DHT22;6367;52.508;13.284;2022-10-26T15:25:54;20.10;99.90
12604;DHT22;6367;52.508;13.284;2022-10-26T15:28:36;20.10;99.90
12604;DHT22;6367;52.508;13.284;2022-10-26T15:33:38;20.00;99.90
12604;DHT22;6367;52.508;13.284;2022-10-26T15:36:24;20.00;99.90
12604;DHT22;6367;52.508;13.284;2022-10-26T15:38:51;19.90;99.90
12604;DHT22;6367;52.508;13.284;2022-10-26T15:41:22;19.90;99.90
12604;DHT22;6367;52.508;13.284;2022-10-26T15:43:49;19.90;99.90
12604;DHT22;6367;52.508;13.284;2022-10-26T15:46:15;19.90;99.90
12604;DHT22;6367;52.508;13.284;2022-10-26T15:48:41;19.80;99.90
12604;DHT22;6367;52.508;13.284;2022-10-26T15:51:11;19.90;99.90
12604;DHT22;6367;52.508;13.284;2022-10-26T15:53:38;19.80;99.90
12604;DHT22;6367;52.508;13.284;2022-10-26T15:56:12;19.80;99.90
12604;DHT22;6367;52.508;13.284;2022-10-26T15:58:38;19.50;99.90
12604;DHT22;6367;52.508;13.284;2022-10-26T16:01:04;19.80;99.90
12604;DHT22;6367;52.508;13.284;2022-10-26T16:03:30;19.80;99.90
12604;DHT22;6367;52.508;13.284;2022-10-26T16:05:58;19.60;99.90
12604;DHT22;6367;52.508;13.284;2022-10-26T16:08:26;19.60;99.90
12604;DHT22;6367;52.508;13.284;2022-10-26T16:10:52;19.60;99.90
12604;DHT22;6367;52.508;13.284;2022-10-26T16:13:18;19.90;99.90
12604;DHT22;6367;52.508;13.284;2022-10-26T16:15:44;19.50;99.90
12604;DHT22;6367;52.508;13.284;2022-10-26T16:18:09;19.40;99.90
12604;DHT22;6367;52.508;13.284;2022-10-26T16:20:35;19.40;99.90
12604;DHT22;6367;52.508;13.284;2022-10-26T16:23:01;19.70;99.90
12604;DHT22;6367;52.508;13.284;2022-10-26T16:25:39;19.30;99.90
12604;DHT22;6367;52.508;13.284;2022-10-26T16:28:05;19.30;99.90
12604;DHT22;6367;52.508;13.284;2022-10-26T16:30:30;19.30;99.90
12604;DHT22;6367;52.508;13.284;2022-10-26T16:32:56;19.30;99.90
12604;DHT22;6367;52.508;13.284;2022-10-26T16:35:22;19.20;99.90
12604;DHT22;6367;52.508;13.284;2022-10-26T16:37:48;19.20;99.90
12604;DHT22;6367;52.508;13.284;2022-10-26T16:40:13;19.10;99.90
12604;DHT22;6367;52.508;13.284;2022-10-26T16:42:39;19.40;99.90
12604;DHT22;6367;52.508;13.284;2022-10-26T16:45:12;19.00;99.90
12604;DHT22;6367;52.508;13.284;2022-10-26T16:47:38;19.00;99.90
12604;DHT22;6367;52.508;13.284;2022-10-26T16:50:08;19.00;99.90
12604;DHT22;6367;52.508;13.284;2022-10-26T16:52:35;19.00;99.90
12604;DHT22;6367;52.508;13.284;2022-10-26T16:55:02;19.00;99.90
12604;DHT22;6367;52.508;13.284;2022-10-26T16:57:28;19.00;99.90
12604;DHT22;6367;52.508;13.284;2022-10-26T16:59:53;19.00;99.90
12604;DHT22;6367;52.508;13.284;2022-10-26T17:02:19;19.10;99.90
12604;DHT22;6367;52.508;13.284;2022-10-26T17:04:45;19.10;99.90
12604;DHT22;6367;52.508;13.284;2022-10-26T17:07:10;19.20;99.90
12604;DHT22;6367;52.508;13.284;2022-10-26T17:09:36;19.10;99.90
12604;DHT22;6367;52.508;13.284;2022-10-26T17:12:02;19.10;99.90
12604;DHT22;6367;52.508;13.284;2022-10-26T17:14:27;19.00;99.90
12604;DHT22;6367;52.508;13.284;2022-10-26T17:16:53;19.10;99.90
12604;DHT22;6367;52.508;13.284;2022-10-26T17:19:19;19.20;99.90
12604;DHT22;6367;52.508;13.284;2022-10-26T17:21:44;19.10;99.90
12604;DHT22;6367;52.508;13.284;2022-10-26T17:24:10;19.00;99.90
12604;DHT22;6367;52.508;13.284;2022-10-26T17:26:38;19.00;99.90
12604;DHT22;6367;52.508;13.284;2022-10-26T17:29:03;19.50;99.90
12604;DHT22;6367;52.508;13.284;2022-10-26T17:31:29;19.00;99.90
12604;DHT22;6367;52.508;13.284;2022-10-26T17:33:56;19.00;99.90
12604;DHT22;6367;52.508;13.284;2022-10-26T17:36:23;19.20;99.90
12604;DHT22;6367;52.508;13.284;2022-10-26T17:38:51;18.90;99.90
12604;DHT22;6367;52.508;13.284;2022-10-26T17:41:19;18.90;99.90
12604;DHT22;6367;52.508;13.284;2022-10-26T17:43:46;18.90;99.90